Akron, Michigan
Current Conditions -  °F | °C
As of 8:35 PM on Monday 20 Oct 2014 (Local Time) from KCFS Reporting Station
Overcast Overcast  
Wind Chill: 51°   Ceiling: 5000
Heat Index: 51°   Visibility: 10mi
Dew Point: 46°   Wind: 5mph
Humidity: 82%   Direction: 320°NW
Pressure: 29.85"   Gusts: NA
Location:  43.57°N, 83.51°W
Report Text: KCFS 210035Z AUTO 32004KT 10SM BKN050 OVC075 11/08 A2985 RMK AO2 T01050075
Loading
Personal Weather Stations






























Interactive Weather Map
Tropical Storm Tracking
New forecast layout! Learn more

10-Day Weather Forecast

Advertisements
Track Severe Weather on mobile